Time;durP1;ratioP1;P1;durP2;ratioP2;P2;SDS_P1;SDS_P2;PMS_P1;PMS_P2;Temp;Humidity;BMP_temperature;BMP_pressure;BME280_temperature;BME280_humidity;BME280_pressure;Samples;Min_cycle;Max_cycle;Signal;HPM_P1;HPM_P2
2023/12/23 00:01:53;;;;;;;;;;;17.40;47.30;;;;;;1557196;74;808;-70
2023/12/23 00:03:55;;;;;;;;;;;17.30;47.20;;;;;;1554871;74;1160;-73
2023/12/23 00:05:57;;;;;;;;;;;17.40;47.20;;;;;;1556621;74;784;-72
2023/12/23 00:07:59;;;;;;;;;;;17.30;47.20;;;;;;1553980;74;747;-71
2023/12/23 00:10:00;;;;;;;;;;;17.30;47.20;;;;;;1556805;74;796;-71
2023/12/23 00:12:02;;;;;;;;;;;17.30;47.20;;;;;;1556498;74;754;-72
2023/12/23 00:14:04;;;;;;;;;;;17.30;47.20;;;;;;1557300;74;1182;-71
2023/12/23 00:16:06;;;;;;;;;;;17.40;47.20;;;;;;1550211;74;783;-72
2023/12/23 00:18:08;;;;;;;;;;;17.40;47.10;;;;;;1551790;74;1931;-72
2023/12/23 00:20:10;;;;;;;;;;;17.40;47.10;;;;;;1558921;74;764;-70
2023/12/23 00:22:12;;;;;;;;;;;17.40;47.10;;;;;;1561354;74;761;-71
2023/12/23 00:24:14;;;;;;;;;;;17.40;47.10;;;;;;1554953;74;1273;-71
2023/12/23 00:26:16;;;;;;;;;;;17.40;47.10;;;;;;1558296;74;755;-72
2023/12/23 00:28:17;;;;;;;;;;;17.40;47.10;;;;;;1563458;74;795;-71
2023/12/23 00:30:19;;;;;;;;;;;17.40;47.10;;;;;;1559462;74;761;-72
2023/12/23 00:32:21;;;;;;;;;;;17.40;47.10;;;;;;1562999;74;789;-71
2023/12/23 00:34:23;;;;;;;;;;;17.40;47.10;;;;;;1564600;74;1166;-66
2023/12/23 00:36:25;;;;;;;;;;;17.40;47.00;;;;;;1564955;74;823;-72
2023/12/23 00:38:27;;;;;;;;;;;17.40;47.10;;;;;;1558743;74;1930;-71
2023/12/23 00:40:29;;;;;;;;;;;17.40;47.00;;;;;;1561344;74;1483;-72
2023/12/23 00:42:31;;;;;;;;;;;17.40;47.00;;;;;;1558289;74;734;-71
2023/12/23 00:44:33;;;;;;;;;;;17.40;47.00;;;;;;1561312;74;1172;-72
2023/12/23 00:46:35;;;;;;;;;;;17.40;47.00;;;;;;1563128;74;640;-71
2023/12/23 00:48:37;;;;;;;;;;;17.40;47.00;;;;;;1557094;74;756;-71
2023/12/23 00:50:39;;;;;;;;;;;17.40;46.90;;;;;;1561638;74;769;-70
2023/12/23 00:52:41;;;;;;;;;;;17.40;46.90;;;;;;1556227;74;712;-65
2023/12/23 00:54:43;;;;;;;;;;;17.40;46.90;;;;;;1563843;75;1154;-70
2023/12/23 00:56:45;;;;;;;;;;;17.40;47.00;;;;;;1554035;74;808;-71
2023/12/23 00:58:47;;;;;;;;;;;17.40;47.00;;;;;;1566288;74;1932;-70
2023/12/23 01:00:49;;;;;;;;;;;17.40;46.90;;;;;;1567675;74;840;-71
2023/12/23 01:02:51;;;;;;;;;;;17.40;47.00;;;;;;1538517;76;792;-72
2023/12/23 01:04:54;;;;;;;;;;;17.40;46.90;;;;;;1551784;75;1184;-72
2023/12/23 01:06:56;;;;;;;;;;;17.40;46.80;;;;;;1534323;76;745;-72
2023/12/23 01:08:58;;;;;;;;;;;17.40;46.90;;;;;;1575372;74;762;-69
2023/12/23 01:11:00;;;;;;;;;;;17.40;46.90;;;;;;1566925;74;759;-69
2023/12/23 01:13:02;;;;;;;;;;;17.40;46.90;;;;;;1568894;74;747;-70
2023/12/23 01:15:04;;;;;;;;;;;17.40;46.90;;;;;;1565007;74;1159;-69
2023/12/23 01:17:06;;;;;;;;;;;17.40;46.80;;;;;;1577513;74;791;-72
2023/12/23 01:19:08;;;;;;;;;;;17.40;46.80;;;;;;1563401;74;1936;-70
2023/12/23 01:21:10;;;;;;;;;;;17.40;46.90;;;;;;1573402;74;784;-71
2023/12/23 01:23:12;;;;;;;;;;;17.40;46.90;;;;;;1563882;74;747;-72
2023/12/23 01:25:14;;;;;;;;;;;17.40;46.80;;;;;;1537655;76;1251;-69
2023/12/23 01:27:15;;;;;;;;;;;17.40;46.90;;;;;;1566480;74;777;-72
2023/12/23 01:29:17;;;;;;;;;;;17.40;46.90;;;;;;1564041;75;799;-69
2023/12/23 01:31:20;;;;;;;;;;;17.40;46.90;;;;;;1560966;74;732;-72
2023/12/23 01:33:22;;;;;;;;;;;17.40;46.90;;;;;;1562058;74;792;-71
2023/12/23 01:35:24;;;;;;;;;;;17.40;46.90;;;;;;1560906;74;1130;-71
2023/12/23 01:37:26;;;;;;;;;;;17.40;46.90;;;;;;1562223;75;1481;-72
2023/12/23 01:39:28;;;;;;;;;;;17.40;46.80;;;;;;1561695;75;1948;-71
2023/12/23 01:41:30;;;;;;;;;;;17.40;46.80;;;;;;1563281;74;752;-69
2023/12/23 01:43:33;;;;;;;;;;;17.40;46.80;;;;;;1583050;74;634;-71
2023/12/23 01:45:35;;;;;;;;;;;17.40;46.80;;;;;;1538098;75;1035;-71
2023/12/23 01:47:39;;;;;;;;;;;17.40;46.80;;;;;;1565736;74;759;-70
2023/12/23 01:49:42;;;;;;;;;;;17.40;46.80;;;;;;1560771;74;800;-70
2023/12/23 01:51:44;;;;;;;;;;;17.40;46.80;;;;;;1574782;74;739;-71
2023/12/23 01:53:45;;;;;;;;;;;17.40;46.90;;;;;;1532088;75;1260;-69
2023/12/23 01:55:47;;;;;;;;;;;17.40;46.90;;;;;;1524689;75;771;-70
2023/12/23 01:57:49;;;;;;;;;;;17.40;46.80;;;;;;1549295;76;750;-71
2023/12/23 01:59:51;;;;;;;;;;;17.40;46.90;;;;;;1568523;74;1938;-72
2023/12/23 02:01:53;;;;;;;;;;;17.40;46.80;;;;;;1566346;74;779;-71
2023/12/23 02:03:55;;;;;;;;;;;17.40;46.80;;;;;;1566908;74;1141;-73
2023/12/23 02:05:57;;;;;;;;;;;17.40;46.90;;;;;;1565787;74;768;-69
2023/12/23 02:07:58;;;;;;;;;;;17.40;46.90;;;;;;1561408;74;780;-70
2023/12/23 02:10:00;;;;;;;;;;;17.40;46.80;;;;;;1570737;74;761;-71
2023/12/23 02:12:04;;;;;;;;;;;17.40;46.80;;;;;;1570320;74;765;-71
2023/12/23 02:14:07;;;;;;;;;;;17.40;46.80;;;;;;1569193;74;1163;-70
2023/12/23 02:16:08;;;;;;;;;;;17.40;46.80;;;;;;1554519;74;854;-69
2023/12/23 02:18:11;;;;;;;;;;;17.30;46.90;;;;;;1560117;74;792;-69
2023/12/23 02:20:12;;;;;;;;;;;17.40;46.80;;;;;;1555923;74;859;-72
2023/12/23 02:22:14;;;;;;;;;;;17.40;46.80;;;;;;1555307;74;782;-72
2023/12/23 02:24:16;;;;;;;;;;;17.40;46.80;;;;;;1560060;74;1256;-73
2023/12/23 02:26:18;;;;;;;;;;;17.40;46.80;;;;;;1559815;74;770;-72
2023/12/23 02:28:20;;;;;;;;;;;17.40;46.80;;;;;;1554083;74;753;-69
2023/12/23 02:30:22;;;;;;;;;;;17.30;46.80;;;;;;1558861;74;695;-68
2023/12/23 02:32:25;;;;;;;;;;;17.40;46.80;;;;;;1561327;74;1423;-69
2023/12/23 02:34:27;;;;;;;;;;;17.40;46.90;;;;;;1557805;74;1170;-70
2023/12/23 02:36:29;;;;;;;;;;;17.40;46.90;;;;;;1564303;74;766;-65
2023/12/23 02:38:31;;;;;;;;;;;17.30;46.90;;;;;;1562104;74;1944;-72
2023/12/23 02:40:33;;;;;;;;;;;17.40;46.90;;;;;;1557892;74;751;-70
2023/12/23 02:42:35;;;;;;;;;;;17.40;46.90;;;;;;1559738;74;765;-72
2023/12/23 02:44:36;;;;;;;;;;;17.40;46.80;;;;;;1562002;74;1237;-72
2023/12/23 02:46:38;;;;;;;;;;;17.40;46.80;;;;;;1563717;74;762;-69
2023/12/23 02:48:40;;;;;;;;;;;17.40;46.90;;;;;;1557062;74;775;-72
2023/12/23 02:50:42;;;;;;;;;;;17.40;46.80;;;;;;1551285;74;812;-70
2023/12/23 02:52:44;;;;;;;;;;;17.40;46.90;;;;;;1557789;74;805;-71
2023/12/23 02:54:46;;;;;;;;;;;17.40;46.80;;;;;;1562312;74;1141;-72
2023/12/23 02:56:48;;;;;;;;;;;17.30;46.80;;;;;;1563529;74;654;-71
2023/12/23 02:58:50;;;;;;;;;;;17.30;46.90;;;;;;1552437;74;1923;-71
2023/12/23 03:00:52;;;;;;;;;;;17.40;46.80;;;;;;1560848;74;643;-71
2023/12/23 03:02:53;;;;;;;;;;;17.30;46.90;;;;;;1559186;74;766;-68
2023/12/23 03:04:55;;;;;;;;;;;17.40;46.80;;;;;;1578639;74;1166;-70
2023/12/23 03:06:57;;;;;;;;;;;17.40;46.80;;;;;;1565399;74;800;-71
2023/12/23 03:08:59;;;;;;;;;;;17.40;46.90;;;;;;1565870;74;800;-72
2023/12/23 03:11:01;;;;;;;;;;;17.40;46.80;;;;;;1573320;74;777;-69
2023/12/23 03:13:03;;;;;;;;;;;17.30;46.90;;;;;;1577190;74;757;-72
2023/12/23 03:15:05;;;;;;;;;;;17.30;46.90;;;;;;1564529;74;1160;-72
2023/12/23 03:17:07;;;;;;;;;;;17.40;46.90;;;;;;1563424;74;758;-72
2023/12/23 03:19:09;;;;;;;;;;;17.40;46.90;;;;;;1563640;74;1926;-70
2023/12/23 03:21:11;;;;;;;;;;;17.40;46.90;;;;;;1565271;74;777;-72
2023/12/23 03:23:13;;;;;;;;;;;17.40;46.80;;;;;;1567497;74;798;-70
2023/12/23 03:25:14;;;;;;;;;;;17.40;46.90;;;;;;1552108;74;1240;-72
2023/12/23 03:27:18;;;;;;;;;;;17.30;46.90;;;;;;1561351;74;776;-72
2023/12/23 03:29:20;;;;;;;;;;;17.40;46.90;;;;;;1562739;74;1441;-72
2023/12/23 03:31:22;;;;;;;;;;;17.40;46.90;;;;;;1561046;74;799;-72
2023/12/23 03:33:24;;;;;;;;;;;17.30;46.90;;;;;;1561593;74;955;-72
2023/12/23 03:35:26;;;;;;;;;;;17.40;46.90;;;;;;1567863;74;1148;-72
2023/12/23 03:37:28;;;;;;;;;;;17.40;47.00;;;;;;1557446;74;772;-72
2023/12/23 03:39:30;;;;;;;;;;;17.40;47.00;;;;;;1562413;74;1945;-69
2023/12/23 03:41:32;;;;;;;;;;;17.30;47.00;;;;;;1564325;74;966;-73
2023/12/23 03:43:33;;;;;;;;;;;17.30;46.90;;;;;;1566870;74;1165;-70
2023/12/23 03:45:35;;;;;;;;;;;17.40;47.00;;;;;;1570838;74;754;-70
2023/12/23 03:47:39;;;;;;;;;;;17.40;47.00;;;;;;1566014;74;751;-71
2023/12/23 03:49:42;;;;;;;;;;;17.40;47.00;;;;;;1566073;74;1607;-72
2023/12/23 03:51:44;;;;;;;;;;;17.30;47.00;;;;;;1552316;75;807;-72
2023/12/23 03:53:45;;;;;;;;;;;17.20;46.80;;;;;;1554011;76;1155;-72
2023/12/23 03:55:47;;;;;;;;;;;17.40;46.90;;;;;;1562725;74;768;-71
2023/12/23 03:57:49;;;;;;;;;;;17.30;47.00;;;;;;1578905;74;760;-72
2023/12/23 03:59:51;;;;;;;;;;;17.30;46.90;;;;;;1573695;74;1937;-72
2023/12/23 04:01:53;;;;;;;;;;;17.40;47.00;;;;;;1565887;74;825;-70
2023/12/23 04:03:55;;;;;;;;;;;17.40;47.00;;;;;;1577361;74;1167;-73
2023/12/23 04:05:57;;;;;;;;;;;17.30;47.00;;;;;;1564659;74;784;-70
2023/12/23 04:07:59;;;;;;;;;;;17.40;47.00;;;;;;1578326;74;775;-72
2023/12/23 04:10:01;;;;;;;;;;;17.30;47.00;;;;;;1556236;74;729;-72
2023/12/23 04:12:02;;;;;;;;;;;17.30;47.00;;;;;;1568590;74;769;-70
2023/12/23 04:14:04;;;;;;;;;;;17.30;47.00;;;;;;1574789;74;1146;-68
2023/12/23 04:16:06;;;;;;;;;;;17.30;47.00;;;;;;1567185;74;778;-71
2023/12/23 04:18:08;;;;;;;;;;;17.30;47.00;;;;;;1548521;75;776;-70
2023/12/23 04:20:10;;;;;;;;;;;17.30;47.10;;;;;;1546864;75;1948;-72
2023/12/23 04:22:12;;;;;;;;;;;17.30;47.10;;;;;;1527267;75;758;-71
2023/12/23 04:24:14;;;;;;;;;;;17.30;47.10;;;;;;1541555;76;1219;-72
2023/12/23 04:26:16;;;;;;;;;;;17.40;46.90;;;;;;1578168;74;1307;-69
2023/12/23 04:28:24;;;;;;;;;;;17.30;47.10;;;;;;1534473;76;778;-72
2023/12/23 04:30:21;;;;;;;;;;;17.30;47.10;;;;;;1542955;76;1573;-71
2023/12/23 04:32:23;;;;;;;;;;;17.40;47.00;;;;;;1564311;74;793;-70
2023/12/23 04:34:25;;;;;;;;;;;17.40;47.00;;;;;;1565178;74;1127;-67
2023/12/23 04:36:27;;;;;;;;;;;17.30;47.00;;;;;;1539948;75;756;-72
2023/12/23 04:38:29;;;;;;;;;;;17.30;47.10;;;;;;1547574;75;799;-71
2023/12/23 04:40:31;;;;;;;;;;;17.40;47.00;;;;;;1546343;76;1943;-71
2023/12/23 04:42:33;;;;;;;;;;;17.30;47.00;;;;;;1535151;76;760;-70
2023/12/23 04:44:35;;;;;;;;;;;17.30;47.00;;;;;;1555733;74;1180;-70
2023/12/23 04:46:37;;;;;;;;;;;17.30;47.00;;;;;;1540166;75;742;-72
2023/12/23 04:48:38;;;;;;;;;;;17.30;47.10;;;;;;1579752;74;708;-72
2023/12/23 04:50:40;;;;;;;;;;;17.40;47.00;;;;;;1568342;74;793;-71
2023/12/23 04:52:42;;;;;;;;;;;17.40;47.10;;;;;;1568122;74;712;-69
2023/12/23 04:54:44;;;;;;;;;;;17.30;47.00;;;;;;1557149;74;1153;-71
2023/12/23 04:56:46;;;;;;;;;;;17.40;47.10;;;;;;1561565;74;785;-72
2023/12/23 04:58:48;;;;;;;;;;;17.30;47.10;;;;;;1566175;74;759;-71
2023/12/23 05:00:50;;;;;;;;;;;17.30;47.10;;;;;;1574461;74;1943;-72
2023/12/23 05:02:51;;;;;;;;;;;17.30;47.10;;;;;;1580822;74;734;-71
2023/12/23 05:04:53;;;;;;;;;;;17.30;47.10;;;;;;1580466;74;1180;-71
2023/12/23 05:06:57;;;;;;;;;;;17.30;47.10;;;;;;1566880;74;765;-71
2023/12/23 05:08:59;;;;;;;;;;;17.30;47.10;;;;;;1529317;76;782;-72
2023/12/23 05:11:01;;;;;;;;;;;17.30;47.10;;;;;;1543787;76;748;-72
2023/12/23 05:13:03;;;;;;;;;;;17.30;47.10;;;;;;1554506;74;778;-71
2023/12/23 05:15:05;;;;;;;;;;;17.30;47.10;;;;;;1555957;74;1149;-72
2023/12/23 05:17:07;;;;;;;;;;;17.30;47.10;;;;;;1561387;74;791;-66
2023/12/23 05:19:09;;;;;;;;;;;17.30;47.10;;;;;;1562474;74;795;-69
2023/12/23 05:21:11;;;;;;;;;;;17.30;47.10;;;;;;1562260;74;1935;-71
2023/12/23 05:23:13;;;;;;;;;;;17.20;47.00;;;;;;1557486;74;772;-68
2023/12/23 05:25:15;;;;;;;;;;;17.20;47.00;;;;;;1560897;74;1244;-71
2023/12/23 05:27:16;;;;;;;;;;;17.30;47.10;;;;;;1561433;74;789;-72
2023/12/23 05:29:18;;;;;;;;;;;17.30;47.10;;;;;;1562198;74;764;-69
2023/12/23 05:31:20;;;;;;;;;;;17.30;47.10;;;;;;1559832;74;757;-72
2023/12/23 05:33:24;;;;;;;;;;;17.30;47.10;;;;;;1550282;74;771;-70
2023/12/23 05:35:26;;;;;;;;;;;17.30;47.10;;;;;;1535518;75;1139;-72
2023/12/23 05:37:27;;;;;;;;;;;17.30;47.10;;;;;;1560640;74;809;-73
2023/12/23 05:39:29;;;;;;;;;;;17.30;47.10;;;;;;1551113;75;1942;-72
2023/12/23 05:41:31;;;;;;;;;;;17.30;47.10;;;;;;1531657;76;756;-70
2023/12/23 05:43:33;;;;;;;;;;;17.30;47.10;;;;;;1565623;74;782;-71
2023/12/23 05:45:35;;;;;;;;;;;17.30;47.10;;;;;;1576877;74;769;-70
2023/12/23 05:47:37;;;;;;;;;;;17.30;47.10;;;;;;1564546;74;785;-71
2023/12/23 05:49:39;;;;;;;;;;;17.20;47.00;;;;;;1564904;74;768;-72
2023/12/23 05:51:41;;;;;;;;;;;17.30;47.10;;;;;;1564905;74;732;-70
2023/12/23 05:53:43;;;;;;;;;;;17.30;47.20;;;;;;1562848;74;1158;-71
2023/12/23 05:55:45;;;;;;;;;;;17.30;47.10;;;;;;1563563;74;796;-68
2023/12/23 05:57:46;;;;;;;;;;;17.30;47.10;;;;;;1566643;75;797;-71
2023/12/23 05:59:48;;;;;;;;;;;17.30;47.10;;;;;;1579053;74;1953;-70
2023/12/23 06:01:52;;;;;;;;;;;17.30;47.20;;;;;;1576297;74;773;-72
2023/12/23 06:03:53;;;;;;;;;;;17.30;47.10;;;;;;1528941;75;1159;-72
2023/12/23 06:05:55;;;;;;;;;;;17.20;47.00;;;;;;1530323;75;751;-72
2023/12/23 06:07:58;;;;;;;;;;;17.20;47.00;;;;;;1545436;76;781;-72
2023/12/23 06:09:59;;;;;;;;;;;17.30;47.10;;;;;;1542191;76;737;-72
2023/12/23 06:12:02;;;;;;;;;;;17.30;47.10;;;;;;1585609;74;739;-70
2023/12/23 06:14:03;;;;;;;;;;;17.30;47.10;;;;;;1531351;75;1150;-69
2023/12/23 06:16:06;;;;;;;;;;;17.30;47.10;;;;;;1554246;74;824;-72
2023/12/23 06:18:07;;;;;;;;;;;17.20;47.00;;;;;;1547948;76;1472;-71
2023/12/23 06:20:10;;;;;;;;;;;17.20;47.00;;;;;;1539719;75;1937;-71
2023/12/23 06:22:11;;;;;;;;;;;17.30;47.10;;;;;;1545534;76;776;-72
2023/12/23 06:24:14;;;;;;;;;;;17.20;46.90;;;;;;1550841;76;1227;-72
2023/12/23 06:26:15;;;;;;;;;;;17.20;46.90;;;;;;1553523;76;764;-71
2023/12/23 06:28:17;;;;;;;;;;;17.30;47.10;;;;;;1563057;74;758;-70
2023/12/23 06:30:19;;;;;;;;;;;17.30;47.00;;;;;;1543105;76;761;-73
2023/12/23 06:32:21;;;;;;;;;;;17.30;47.00;;;;;;1554600;76;780;-72
2023/12/23 06:34:23;;;;;;;;;;;17.30;47.10;;;;;;1531026;75;1182;-66
2023/12/23 06:36:25;;;;;;;;;;;17.30;47.10;;;;;;1538465;75;766;-72
2023/12/23 06:38:27;;;;;;;;;;;17.30;47.10;;;;;;1555635;76;822;-71
2023/12/23 06:40:29;;;;;;;;;;;17.20;47.00;;;;;;1572848;74;1942;-72
2023/12/23 06:42:31;;;;;;;;;;;17.30;47.10;;;;;;1563000;74;767;-72
2023/12/23 06:44:33;;;;;;;;;;;17.30;47.10;;;;;;1570870;74;1171;-72
2023/12/23 06:46:34;;;;;;;;;;;17.30;47.20;;;;;;1564531;74;765;-72
2023/12/23 06:48:37;;;;;;;;;;;17.30;47.10;;;;;;1569030;74;768;-73
2023/12/23 06:50:38;;;;;;;;;;;17.30;47.10;;;;;;1576627;74;988;-72
2023/12/23 06:52:41;;;;;;;;;;;17.30;47.10;;;;;;1567763;74;800;-69
2023/12/23 06:54:43;;;;;;;;;;;17.20;47.00;;;;;;1562663;74;1171;-71
2023/12/23 06:56:45;;;;;;;;;;;17.30;47.10;;;;;;1563646;74;853;-72
2023/12/23 06:58:47;;;;;;;;;;;17.20;47.00;;;;;;1569395;74;796;-73
2023/12/23 07:00:48;;;;;;;;;;;17.30;47.10;;;;;;1535472;76;1930;-71
2023/12/23 07:02:51;;;;;;;;;;;17.30;47.10;;;;;;1551915;75;783;-72
2023/12/23 07:04:53;;;;;;;;;;;17.30;47.10;;;;;;1562766;74;1165;-71
2023/12/23 07:06:54;;;;;;;;;;;17.20;47.00;;;;;;1569984;74;804;-72
2023/12/23 07:08:56;;;;;;;;;;;17.30;47.10;;;;;;1567653;74;758;-72
2023/12/23 07:10:58;;;;;;;;;;;17.20;46.90;;;;;;1568762;74;806;-71
2023/12/23 07:13:00;;;;;;;;;;;17.30;47.00;;;;;;1559697;74;750;-73
2023/12/23 07:15:03;;;;;;;;;;;17.30;47.10;;;;;;1562068;74;1473;-72
2023/12/23 07:17:04;;;;;;;;;;;17.20;47.00;;;;;;1561172;74;755;-69
2023/12/23 07:19:06;;;;;;;;;;;17.20;46.90;;;;;;1560702;75;771;-71
2023/12/23 07:21:08;;;;;;;;;;;17.20;46.90;;;;;;1558831;74;1946;-71
2023/12/23 07:23:10;;;;;;;;;;;17.30;47.00;;;;;;1559981;74;797;-72
2023/12/23 07:25:12;;;;;;;;;;;17.30;47.10;;;;;;1562412;74;1233;-72
2023/12/23 07:27:14;;;;;;;;;;;17.20;46.90;;;;;;1561511;74;1004;-72
2023/12/23 07:29:16;;;;;;;;;;;17.20;47.10;;;;;;1556868;75;768;-68
2023/12/23 07:31:18;;;;;;;;;;;17.20;47.00;;;;;;1558945;75;743;-71
2023/12/23 07:33:21;;;;;;;;;;;17.30;47.00;;;;;;1562127;74;770;-70
2023/12/23 07:35:23;;;;;;;;;;;17.30;47.10;;;;;;1550414;75;1177;-71
2023/12/23 07:37:24;;;;;;;;;;;17.30;47.10;;;;;;1560936;74;789;-70
2023/12/23 07:39:26;;;;;;;;;;;17.30;47.10;;;;;;1559897;74;788;-72
2023/12/23 07:41:28;;;;;;;;;;;17.30;47.00;;;;;;1562658;75;1941;-72
2023/12/23 07:43:30;;;;;;;;;;;17.20;46.90;;;;;;1563077;74;740;-69
2023/12/23 07:45:32;;;;;;;;;;;17.30;47.10;;;;;;1559546;75;1177;-71
2023/12/23 07:47:34;;;;;;;;;;;17.30;47.10;;;;;;1566762;74;810;-69
2023/12/23 07:49:36;;;;;;;;;;;17.30;47.10;;;;;;1560378;74;770;-71
2023/12/23 07:51:38;;;;;;;;;;;17.30;47.10;;;;;;1580997;74;781;-71
2023/12/23 07:53:40;;;;;;;;;;;17.30;47.10;;;;;;1566696;74;1167;-70
2023/12/23 07:55:42;;;;;;;;;;;17.30;47.10;;;;;;1533642;75;777;-69
2023/12/23 07:57:45;;;;;;;;;;;17.30;47.10;;;;;;1530479;76;677;-68
2023/12/23 07:59:48;;;;;;;;;;;17.20;46.90;;;;;;1563081;75;818;-72
2023/12/23 08:01:50;;;;;;;;;;;17.20;46.90;;;;;;1540418;75;1938;-70
2023/12/23 08:03:52;;;;;;;;;;;17.30;47.10;;;;;;1550061;75;1166;-71
2023/12/23 08:05:54;;;;;;;;;;;17.30;47.10;;;;;;1554398;74;786;-68
2023/12/23 08:07:56;;;;;;;;;;;17.20;47.00;;;;;;1566028;74;682;-73
2023/12/23 08:09:58;;;;;;;;;;;17.30;47.00;;;;;;1567398;74;1400;-71
2023/12/23 08:12:00;;;;;;;;;;;17.30;47.00;;;;;;1543252;76;741;-71
2023/12/23 08:14:02;;;;;;;;;;;17.20;46.80;;;;;;1539244;75;1156;-72
2023/12/23 08:16:04;;;;;;;;;;;17.30;47.00;;;;;;1566390;74;809;-68
2023/12/23 08:18:06;;;;;;;;;;;17.20;46.90;;;;;;1535793;75;792;-71
2023/12/23 08:20:08;;;;;;;;;;;17.30;47.00;;;;;;1561444;74;784;-72
2023/12/23 08:22:10;;;;;;;;;;;17.20;47.00;;;;;;1529962;76;1942;-72
2023/12/23 08:24:13;;;;;;;;;;;17.30;47.00;;;;;;1569512;74;1232;-72
2023/12/23 08:26:15;;;;;;;;;;;17.30;47.10;;;;;;1579613;74;777;-72
2023/12/23 08:28:16;;;;;;;;;;;17.20;46.90;;;;;;1574833;74;783;-72
2023/12/23 08:30:19;;;;;;;;;;;17.20;46.90;;;;;;1567581;74;768;-72
2023/12/23 08:32:21;;;;;;;;;;;17.20;46.90;;;;;;1583429;74;772;-72
2023/12/23 08:34:23;;;;;;;;;;;17.30;47.00;;;;;;1583284;74;1313;-72
2023/12/23 08:36:25;;;;;;;;;;;17.30;47.00;;;;;;1562707;74;785;-70
2023/12/23 08:38:27;;;;;;;;;;;17.20;46.90;;;;;;1566836;74;798;-72
2023/12/23 08:40:29;;;;;;;;;;;17.20;46.80;;;;;;1542129;76;657;-72
2023/12/23 08:42:31;;;;;;;;;;;17.20;46.80;;;;;;1567205;74;1954;-72
2023/12/23 08:44:32;;;;;;;;;;;17.30;46.90;;;;;;1569079;74;1129;-68
2023/12/23 08:46:34;;;;;;;;;;;17.30;47.00;;;;;;1564983;74;769;-70
2023/12/23 08:48:37;;;;;;;;;;;17.20;46.80;;;;;;1508448;77;765;-71
2023/12/23 08:50:39;;;;;;;;;;;17.20;46.90;;;;;;1564926;74;777;-72
2023/12/23 08:52:41;;;;;;;;;;;17.20;46.80;;;;;;1550785;75;807;-70
2023/12/23 08:54:43;;;;;;;;;;;17.20;46.80;;;;;;1564475;74;1188;-70
2023/12/23 08:56:44;;;;;;;;;;;17.20;46.80;;;;;;1566683;75;790;-70
2023/12/23 08:58:46;;;;;;;;;;;17.20;46.80;;;;;;1560450;74;802;-72
2023/12/23 09:00:48;;;;;;;;;;;17.20;46.80;;;;;;1559271;74;1935;-69
2023/12/23 09:02:50;;;;;;;;;;;17.20;46.80;;;;;;1591980;74;770;-72
2023/12/23 09:04:52;;;;;;;;;;;17.30;46.90;;;;;;1569699;74;1173;-72
2023/12/23 09:06:54;;;;;;;;;;;17.20;46.80;;;;;;1559659;74;1432;-72
2023/12/23 09:08:57;;;;;;;;;;;17.20;46.90;;;;;;1571928;74;780;-69
2023/12/23 09:10:59;;;;;;;;;;;17.20;46.80;;;;;;1572900;74;731;-70
2023/12/23 09:13:02;;;;;;;;;;;17.20;46.80;;;;;;1577922;74;775;-72
2023/12/23 09:15:04;;;;;;;;;;;17.20;46.80;;;;;;1575994;74;1157;-72
2023/12/23 09:17:06;;;;;;;;;;;17.20;46.80;;;;;;1576728;74;777;-70
2023/12/23 09:19:08;;;;;;;;;;;17.20;46.80;;;;;;1569391;74;747;-69
2023/12/23 09:21:10;;;;;;;;;;;17.20;46.80;;;;;;1568896;74;1943;-70
2023/12/23 09:23:11;;;;;;;;;;;17.20;46.80;;;;;;1578225;74;763;-70
2023/12/23 09:25:13;;;;;;;;;;;17.30;46.90;;;;;;1570037;74;1226;-70
2023/12/23 09:27:15;;;;;;;;;;;17.20;46.90;;;;;;1573331;74;746;-70
2023/12/23 09:29:17;;;;;;;;;;;17.30;47.00;;;;;;1564960;74;664;-72
2023/12/23 09:31:19;;;;;;;;;;;17.30;46.90;;;;;;1565371;74;759;-71
2023/12/23 09:33:21;;;;;;;;;;;17.20;46.80;;;;;;1562186;74;783;-72
2023/12/23 09:35:23;;;;;;;;;;;17.20;46.80;;;;;;1565927;74;1262;-70
2023/12/23 09:37:24;;;;;;;;;;;17.20;46.80;;;;;;1572109;74;810;-71
2023/12/23 09:39:26;;;;;;;;;;;17.20;46.80;;;;;;1584838;74;778;-72
2023/12/23 09:41:28;;;;;;;;;;;17.30;46.90;;;;;;1562931;74;1942;-71
2023/12/23 09:43:30;;;;;;;;;;;17.30;46.90;;;;;;1546133;76;752;-69
2023/12/23 09:45:36;;;;;;;;;;;17.20;46.80;;;;;;1546532;76;1205;-69
2023/12/23 09:47:38;;;;;;;;;;;17.20;46.80;;;;;;1567182;74;786;-72
2023/12/23 09:49:40;;;;;;;;;;;17.20;46.80;;;;;;1564400;75;808;-72
2023/12/23 09:51:42;;;;;;;;;;;17.20;46.80;;;;;;1563106;74;793;-69
2023/12/23 09:53:45;;;;;;;;;;;17.20;46.80;;;;;;1564408;75;1121;-72
2023/12/23 09:55:47;;;;;;;;;;;17.20;46.70;;;;;;1563546;74;799;-72
2023/12/23 09:57:49;;;;;;;;;;;17.20;46.80;;;;;;1563060;74;782;-70
2023/12/23 09:59:54;;;;;;;;;;;17.20;46.70;;;;;;1563835;75;720;-72
2023/12/23 10:01:56;;;;;;;;;;;17.20;46.70;;;;;;1560529;75;1930;-71
2023/12/23 10:03:57;;;;;;;;;;;17.20;46.80;;;;;;1561355;75;1567;-71
2023/12/23 10:06:04;;;;;;;;;;;17.20;46.70;;;;;;1556740;75;788;-72
2023/12/23 10:08:03;;;;;;;;;;;17.30;46.90;;;;;;1563138;75;784;-69
2023/12/23 10:10:05;;;;;;;;;;;17.20;46.80;;;;;;1561219;75;775;-71
2023/12/23 10:12:07;;;;;;;;;;;17.20;46.70;;;;;;1559628;74;661;-71
2023/12/23 10:14:09;;;;;;;;;;;17.20;46.80;;;;;;1554133;75;1172;-70
2023/12/23 10:16:11;;;;;;;;;;;17.20;46.70;;;;;;1564100;74;754;-71
2023/12/23 10:18:13;;;;;;;;;;;17.20;46.70;;;;;;1564400;75;781;-71
2023/12/23 10:20:15;;;;;;;;;;;17.20;46.70;;;;;;1561020;75;771;-72
2023/12/23 10:22:17;;;;;;;;;;;17.20;46.70;;;;;;1561166;75;1934;-72
2023/12/23 10:24:19;;;;;;;;;;;17.20;46.80;;;;;;1562025;75;1170;-73
2023/12/23 10:26:21;;;;;;;;;;;17.20;46.70;;;;;;1562219;75;781;-70
2023/12/23 10:28:23;;;;;;;;;;;17.20;46.70;;;;;;1562496;76;763;-70
2023/12/23 10:30:25;;;;;;;;;;;17.20;46.70;;;;;;1564063;76;816;-72
2023/12/23 10:32:27;;;;;;;;;;;17.20;46.70;;;;;;1563457;75;795;-71
2023/12/23 10:34:31;;;;;;;;;;;17.20;46.70;;;;;;1563372;75;1255;-72
2023/12/23 10:36:33;;;;;;;;;;;17.20;46.70;;;;;;1564038;75;753;-72
2023/12/23 10:38:35;;;;;;;;;;;17.20;46.70;;;;;;1562660;74;653;-72
2023/12/23 10:40:36;;;;;;;;;;;17.20;46.70;;;;;;1561532;75;745;-72
2023/12/23 10:42:39;;;;;;;;;;;17.30;46.80;;;;;;1558663;75;1963;-71
2023/12/23 10:44:41;;;;;;;;;;;17.20;46.60;;;;;;1561094;75;1178;-72
2023/12/23 10:46:43;;;;;;;;;;;17.20;46.60;;;;;;1554935;74;766;-72
2023/12/23 10:48:45;;;;;;;;;;;17.20;46.60;;;;;;1563222;75;775;-72
2023/12/23 10:50:47;;;;;;;;;;;17.20;46.70;;;;;;1553683;75;795;-71
2023/12/23 10:52:49;;;;;;;;;;;17.20;46.60;;;;;;1551893;75;746;-70
2023/12/23 10:54:52;;;;;;;;;;;17.20;46.60;;;;;;1562308;74;1143;-66
2023/12/23 10:56:54;;;;;;;;;;;17.20;46.70;;;;;;1558792;76;755;-66
2023/12/23 10:58:56;;;;;;;;;;;17.30;46.70;;;;;;1567339;74;1439;-70
2023/12/23 11:00:57;;;;;;;;;;;17.20;46.70;;;;;;1522761;76;760;-70
2023/12/23 11:02:59;;;;;;;;;;;17.20;46.50;;;;;;1540544;76;1914;-72
2023/12/23 11:05:06;;;;;;;;;;;17.30;46.80;;;;;;1565857;74;1228;-70
2023/12/23 11:07:08;;;;;;;;;;;17.20;46.60;;;;;;1537648;75;800;-70
2023/12/23 11:09:10;;;;;;;;;;;17.20;46.60;;;;;;1551963;74;782;-71
2023/12/23 11:11:12;;;;;;;;;;;17.30;46.70;;;;;;1537310;76;817;-71
2023/12/23 11:13:15;;;;;;;;;;;17.20;46.50;;;;;;1551826;76;755;-72
2023/12/23 11:15:17;;;;;;;;;;;17.20;46.60;;;;;;1535990;75;1161;-72
2023/12/23 11:17:23;;;;;;;;;;;17.30;46.70;;;;;;1560194;75;740;-69
2023/12/23 11:19:25;;;;;;;;;;;17.20;46.50;;;;;;1552801;76;806;-71
2023/12/23 11:21:27;;;;;;;;;;;17.20;46.60;;;;;;1560943;74;789;-72
2023/12/23 11:23:30;;;;;;;;;;;17.20;46.60;;;;;;1530195;76;1937;-72
2023/12/23 11:25:42;;;;;;;;;;;17.20;46.60;;;;;;1553796;74;1090;-72
2023/12/23 11:27:44;;;;;;;;;;;17.30;46.80;;;;;;1563367;75;538;-72
2023/12/23 11:29:47;;;;;;;;;;;17.20;46.60;;;;;;1563078;75;809;-73
2023/12/23 11:31:49;;;;;;;;;;;17.20;46.60;;;;;;1555345;74;790;-72
2023/12/23 11:33:51;;;;;;;;;;;17.30;46.80;;;;;;1555818;74;1228;-72
2023/12/23 11:35:53;;;;;;;;;;;17.30;46.70;;;;;;1536181;75;765;-69
2023/12/23 11:38:03;;;;;;;;;;;17.20;46.60;;;;;;1553777;74;706;-71
2023/12/23 11:40:03;;;;;;;;;;;17.20;46.50;;;;;;1561447;75;1175;-71
2023/12/23 11:42:05;;;;;;;;;;;17.20;46.60;;;;;;1564382;74;1933;-71
2023/12/23 11:44:07;;;;;;;;;;;17.20;46.60;;;;;;1562331;75;1161;-71
2023/12/23 11:46:09;;;;;;;;;;;17.20;46.60;;;;;;1563883;74;770;-72
2023/12/23 11:48:11;;;;;;;;;;;17.20;46.50;;;;;;1573906;74;751;-69
2023/12/23 11:50:13;;;;;;;;;;;17.20;46.50;;;;;;1575054;74;763;-66
2023/12/23 11:52:15;;;;;;;;;;;17.20;46.50;;;;;;1564068;74;656;-72
2023/12/23 11:54:17;;;;;;;;;;;17.30;46.60;;;;;;1539512;76;1143;-72
2023/12/23 11:56:19;;;;;;;;;;;17.20;46.50;;;;;;1553025;74;1447;-70
2023/12/23 11:58:21;;;;;;;;;;;17.20;46.50;;;;;;1547564;75;752;-71
2023/12/23 12:00:22;;;;;;;;;;;17.20;46.50;;;;;;1554419;76;800;-69
2023/12/23 12:02:25;;;;;;;;;;;17.20;46.50;;;;;;1532912;75;1936;-72
2023/12/23 12:04:27;;;;;;;;;;;17.20;46.50;;;;;;1541638;75;1139;-72
2023/12/23 12:06:29;;;;;;;;;;;17.30;46.50;;;;;;1564097;75;781;-71
2023/12/23 12:08:31;;;;;;;;;;;17.20;46.40;;;;;;1545818;75;801;-73